createdAt,value
2018-12-12T00:02:17.395Z,6.90
2018-12-12T00:04:45.505Z,6.80
2018-12-12T00:07:13.772Z,6.70
2018-12-12T00:09:41.866Z,6.90
2018-12-12T00:12:10.208Z,6.50
2018-12-12T00:14:38.240Z,6.60
2018-12-12T00:17:06.522Z,6.20
2018-12-12T00:19:34.531Z,6.10
2018-12-12T00:22:02.677Z,6.40
2018-12-12T00:24:30.712Z,6.30
2018-12-12T00:26:58.774Z,5.80
2018-12-12T00:29:26.798Z,6.20
2018-12-12T00:31:54.873Z,6.10
2018-12-12T00:34:22.887Z,6.20
2018-12-12T00:36:50.877Z,6.40
2018-12-12T00:39:18.874Z,6.30
2018-12-12T00:41:46.929Z,6.50
2018-12-12T00:44:14.948Z,6.60
2018-12-12T00:46:43.489Z,6.30
2018-12-12T00:49:11.674Z,6.30
2018-12-12T00:51:39.899Z,6.30
2018-12-12T00:54:07.935Z,6.40
2018-12-12T00:56:36.036Z,6.40
2018-12-12T00:59:04.436Z,6.40
2018-12-12T01:01:32.622Z,6.50
2018-12-12T01:04:00.865Z,6.70
2018-12-12T01:06:28.879Z,6.80
2018-12-12T01:08:56.954Z,6.60
2018-12-12T01:11:30.610Z,6.60
2018-12-12T01:13:58.632Z,6.50
2018-12-12T01:16:26.768Z,6.60
2018-12-12T01:18:54.894Z,6.60
2018-12-12T01:21:23.048Z,6.50
2018-12-12T01:23:51.071Z,6.50
2018-12-12T01:26:19.152Z,6.60
2018-12-12T01:28:47.170Z,6.70
2018-12-12T01:31:15.233Z,6.80
2018-12-12T01:33:43.230Z,6.80
2018-12-12T01:36:11.324Z,6.60
2018-12-12T01:38:39.359Z,6.70
2018-12-12T01:41:07.367Z,6.60
2018-12-12T01:43:35.378Z,6.70
2018-12-12T01:46:03.611Z,6.70
2018-12-12T01:48:31.628Z,6.40
2018-12-12T01:50:59.659Z,6.70
2018-12-12T01:53:27.758Z,6.80
2018-12-12T01:55:55.766Z,6.70
2018-12-12T01:58:23.755Z,6.70
2018-12-12T02:00:51.795Z,6.80
2018-12-12T02:03:19.815Z,6.40
2018-12-12T02:05:47.809Z,6.60
2018-12-12T02:08:16.065Z,6.90
2018-12-12T02:10:44.288Z,6.80
2018-12-12T02:13:29.591Z,7.00
2018-12-12T02:15:57.585Z,7.20
2018-12-12T02:18:25.582Z,7.00
2018-12-12T02:20:53.713Z,6.90
2018-12-12T02:23:21.891Z,7.00
2018-12-12T02:25:49.946Z,7.00
2018-12-12T02:28:18.019Z,7.10
2018-12-12T02:30:45.993Z,7.30
2018-12-12T02:33:14.042Z,7.30
2018-12-12T02:35:42.017Z,7.30
2018-12-12T02:38:10.028Z,7.20
2018-12-12T02:40:38.063Z,7.10
2018-12-12T02:43:06.088Z,7.00
2018-12-12T02:45:34.073Z,7.00
2018-12-12T02:48:02.104Z,7.10
2018-12-12T02:50:30.107Z,6.90
2018-12-12T02:52:58.144Z,6.80
2018-12-12T02:55:26.287Z,6.50
2018-12-12T02:57:54.272Z,6.70
2018-12-12T03:00:22.258Z,6.80
2018-12-12T03:02:50.250Z,7.20
2018-12-12T03:05:18.271Z,7.50
2018-12-12T03:07:46.297Z,7.20
2018-12-12T03:10:14.421Z,7.20
2018-12-12T03:12:42.444Z,6.90
2018-12-12T03:15:10.518Z,6.80
2018-12-12T03:17:38.513Z,7.10
2018-12-12T03:20:06.830Z,7.10
2018-12-12T03:22:34.910Z,7.20
2018-12-12T03:25:03.100Z,7.00
2018-12-12T03:27:31.126Z,7.20
2018-12-12T03:29:59.159Z,7.30
2018-12-12T03:32:27.185Z,7.00
2018-12-12T03:34:55.191Z,6.80
2018-12-12T03:37:23.192Z,6.80
2018-12-12T03:39:51.251Z,7.20
2018-12-12T03:42:19.321Z,6.30
2018-12-12T03:44:47.370Z,6.80
2018-12-12T03:47:15.439Z,6.20
2018-12-12T03:49:43.548Z,6.50
2018-12-12T03:52:11.649Z,6.00
2018-12-12T03:54:39.835Z,6.80
2018-12-12T03:57:07.832Z,5.80
2018-12-12T03:59:36.022Z,6.60
2018-12-12T04:02:04.083Z,5.80
2018-12-12T04:04:32.074Z,5.60
2018-12-12T04:07:00.178Z,6.50
2018-12-12T04:09:28.197Z,6.30
2018-12-12T04:11:56.190Z,6.10
2018-12-12T04:14:25.140Z,6.50
2018-12-12T04:16:53.324Z,6.00
2018-12-12T04:19:21.416Z,5.80
2018-12-12T04:21:49.694Z,6.00
2018-12-12T04:24:17.674Z,6.00
2018-12-12T04:26:45.738Z,5.80
2018-12-12T04:29:13.756Z,5.60
2018-12-12T04:31:41.909Z,5.60
2018-12-12T04:34:09.960Z,5.50
2018-12-12T04:36:38.016Z,5.40
2018-12-12T04:39:07.103Z,5.60
2018-12-12T04:41:35.463Z,6.10
2018-12-12T04:44:03.849Z,6.10
2018-12-12T04:46:31.867Z,5.80
2018-12-12T04:48:59.884Z,5.60
2018-12-12T04:51:28.059Z,5.50
2018-12-12T04:53:56.178Z,5.60
2018-12-12T04:56:24.351Z,5.40
2018-12-12T04:58:53.302Z,5.60
2018-12-12T05:01:21.350Z,5.30
2018-12-12T05:03:49.379Z,5.40
2018-12-12T05:06:17.596Z,5.00
2018-12-12T05:08:45.888Z,5.10
2018-12-12T05:11:13.920Z,5.20
2018-12-12T05:13:41.951Z,5.40
2018-12-12T05:16:10.021Z,5.10
2018-12-12T05:18:38.117Z,5.10
2018-12-12T05:23:57.601Z,5.80
2018-12-12T05:26:25.529Z,5.40
2018-12-12T05:28:53.575Z,5.30
2018-12-12T05:31:21.652Z,6.10
2018-12-12T05:33:49.675Z,5.80
2018-12-12T05:36:17.967Z,5.30
2018-12-12T05:38:46.051Z,5.80
2018-12-12T05:41:14.047Z,5.80
2018-12-12T05:43:42.091Z,5.40
2018-12-12T05:46:10.581Z,5.70
2018-12-12T05:48:39.149Z,5.90
2018-12-12T05:51:07.203Z,5.90
2018-12-12T05:53:35.275Z,6.40
2018-12-12T05:56:03.333Z,6.20
2018-12-12T05:58:31.374Z,6.00
2018-12-12T06:00:59.409Z,6.00
2018-12-12T06:03:27.517Z,6.50
2018-12-12T06:05:55.945Z,5.90
2018-12-12T06:08:24.069Z,6.40
2018-12-12T06:10:52.259Z,6.10
2018-12-12T06:13:20.439Z,6.40
2018-12-12T06:15:48.507Z,6.30
2018-12-12T06:18:16.642Z,6.30
2018-12-12T06:20:44.716Z,5.80
2018-12-12T06:23:12.769Z,6.30
2018-12-12T06:25:40.900Z,6.40
2018-12-12T06:28:08.973Z,5.70
2018-12-12T06:30:37.079Z,6.50
2018-12-12T06:33:05.262Z,6.80
2018-12-12T06:35:33.286Z,6.80
2018-12-12T06:38:01.357Z,6.80
2018-12-12T06:40:29.431Z,7.00
2018-12-12T06:42:57.504Z,6.80
2018-12-12T06:45:25.508Z,5.90
2018-12-12T06:47:53.547Z,6.10
2018-12-12T06:50:21.726Z,6.20
2018-12-12T06:52:49.722Z,6.70
2018-12-12T06:55:17.786Z,6.00
2018-12-12T06:57:45.776Z,5.80
2018-12-12T07:00:14.151Z,5.80
2018-12-12T07:02:42.311Z,6.10
2018-12-12T07:05:10.356Z,6.40
2018-12-12T07:07:38.633Z,6.10
2018-12-12T07:10:06.862Z,5.90
2018-12-12T07:12:35.330Z,6.20
2018-12-12T07:15:03.889Z,6.00
2018-12-12T07:17:32.085Z,6.30
2018-12-12T07:20:00.250Z,5.70
2018-12-12T07:22:28.331Z,5.90
2018-12-12T07:24:56.539Z,6.10
2018-12-12T07:27:24.948Z,6.30
2018-12-12T07:29:53.036Z,6.40
2018-12-12T07:32:26.050Z,6.60
2018-12-12T07:34:51.072Z,6.60
2018-12-12T07:37:19.149Z,6.40
2018-12-12T07:39:47.133Z,5.80
2018-12-12T07:42:15.197Z,5.90
2018-12-12T07:44:43.237Z,6.00
2018-12-12T07:47:11.354Z,5.80
2018-12-12T07:49:39.534Z,5.70
2018-12-12T07:52:07.627Z,5.90
2018-12-12T07:54:35.610Z,5.40
2018-12-12T07:57:03.630Z,5.50
2018-12-12T07:59:31.654Z,5.20
2018-12-12T08:01:59.762Z,5.20
2018-12-12T08:04:27.866Z,5.20
2018-12-12T08:06:56.358Z,5.20
2018-12-12T08:09:24.581Z,5.40
2018-12-12T08:11:52.668Z,5.80
2018-12-12T08:14:20.696Z,5.60
2018-12-12T08:16:48.796Z,5.90
2018-12-12T08:19:16.958Z,5.50
2018-12-12T08:21:45.166Z,5.50
2018-12-12T08:24:13.202Z,5.70
2018-12-12T08:26:41.322Z,5.60
2018-12-12T08:29:09.670Z,5.90
2018-12-12T08:31:37.887Z,6.20
2018-12-12T08:34:05.971Z,6.50
2018-12-12T08:36:34.170Z,6.10
2018-12-12T08:39:02.487Z,6.60
2018-12-12T08:41:30.627Z,5.90
2018-12-12T08:43:59.111Z,6.90
2018-12-12T08:46:27.241Z,6.60
2018-12-12T08:48:55.266Z,6.30
2018-12-12T08:51:23.320Z,6.70
2018-12-12T08:53:51.352Z,6.00
2018-12-12T08:56:19.323Z,6.20
2018-12-12T08:58:47.421Z,5.90
2018-12-12T09:01:15.431Z,5.90
2018-12-12T09:03:43.527Z,6.50
2018-12-12T09:06:11.722Z,5.70
2018-12-12T09:08:39.813Z,5.70
2018-12-12T09:11:07.996Z,5.50
2018-12-12T09:13:36.066Z,6.00
2018-12-12T09:16:04.260Z,5.90
2018-12-12T09:18:32.471Z,6.20
2018-12-12T09:21:00.725Z,5.60
2018-12-12T09:23:28.901Z,5.50
2018-12-12T09:25:57.152Z,5.70
2018-12-12T09:28:25.253Z,6.20
2018-12-12T09:30:53.441Z,5.70
2018-12-12T09:33:24.544Z,5.90
2018-12-12T09:35:53.944Z,6.20
2018-12-12T09:38:21.959Z,5.90
2018-12-12T09:40:50.295Z,6.20
2018-12-12T09:43:18.507Z,6.50
2018-12-12T09:45:46.583Z,6.80
2018-12-12T09:48:19.335Z,6.20
2018-12-12T09:50:45.127Z,6.00
2018-12-12T09:53:13.280Z,6.40
2018-12-12T09:55:41.517Z,6.90
2018-12-12T09:58:09.628Z,7.30
2018-12-12T10:00:37.773Z,6.70
2018-12-12T10:03:06.791Z,6.40
2018-12-12T10:05:35.346Z,7.30
2018-12-12T10:08:03.527Z,6.20
2018-12-12T10:10:31.614Z,7.10
2018-12-12T10:12:59.908Z,6.00
2018-12-12T10:15:28.022Z,6.60
2018-12-12T10:17:56.167Z,6.80
2018-12-12T10:20:24.294Z,6.70
2018-12-12T10:22:52.415Z,6.30
2018-12-12T10:25:20.619Z,6.40
2018-12-12T10:27:48.819Z,7.70
2018-12-12T10:30:17.033Z,7.10
2018-12-12T10:32:45.171Z,7.50
2018-12-12T10:35:14.522Z,7.10
2018-12-12T10:37:42.919Z,6.60
2018-12-12T10:40:11.035Z,6.90
2018-12-12T10:42:39.154Z,7.40
2018-12-12T10:45:07.426Z,7.20
2018-12-12T10:47:35.617Z,7.70
2018-12-12T10:50:05.209Z,7.20
2018-12-12T10:52:33.452Z,6.50
2018-12-12T10:55:01.655Z,6.70
2018-12-12T10:57:29.842Z,6.80
2018-12-12T10:59:57.893Z,6.80
2018-12-12T11:02:31.833Z,7.40
2018-12-12T11:05:00.330Z,8.00
2018-12-12T11:07:28.488Z,7.10
2018-12-12T11:09:56.616Z,6.40
2018-12-12T11:12:24.829Z,6.40
2018-12-12T11:14:53.262Z,7.00
2018-12-12T11:17:21.518Z,7.10
2018-12-12T11:19:49.631Z,6.40
2018-12-12T11:22:17.796Z,6.60
2018-12-12T11:24:45.868Z,6.60
2018-12-12T11:27:14.033Z,7.00
2018-12-12T11:29:42.087Z,7.00
2018-12-12T11:32:10.174Z,7.50
2018-12-12T11:34:38.285Z,7.20
2018-12-12T11:37:06.366Z,6.60
2018-12-12T11:39:34.505Z,6.80
2018-12-12T11:42:02.753Z,6.50
2018-12-12T11:44:31.026Z,7.20
2018-12-12T11:46:59.185Z,7.70
2018-12-12T11:49:27.315Z,6.80
2018-12-12T11:51:55.644Z,6.60
2018-12-12T11:54:23.914Z,6.90
2018-12-12T11:56:52.034Z,6.70
2018-12-12T11:59:20.250Z,6.30
2018-12-12T12:01:48.337Z,6.90
2018-12-12T12:04:16.502Z,6.80
2018-12-12T12:06:44.595Z,6.70
2018-12-12T12:09:13.022Z,6.70
2018-12-12T12:11:41.516Z,6.10
2018-12-12T12:14:09.640Z,5.90
2018-12-12T12:16:37.837Z,5.90
2018-12-12T12:19:05.957Z,7.10
2018-12-12T12:21:34.171Z,6.70
2018-12-12T12:24:02.428Z,7.20
2018-12-12T12:26:30.857Z,7.50
2018-12-12T12:28:59.164Z,7.10
2018-12-12T12:31:27.564Z,6.80
2018-12-12T12:33:55.790Z,7.10
2018-12-12T12:36:23.892Z,7.40
2018-12-12T12:38:52.020Z,7.10
2018-12-12T12:41:20.068Z,8.30
2018-12-12T12:43:48.163Z,7.50
2018-12-12T12:46:16.263Z,7.60
2018-12-12T12:48:44.373Z,7.60
2018-12-12T12:51:12.865Z,7.20
2018-12-12T12:53:41.057Z,7.10
2018-12-12T12:56:09.194Z,8.50
2018-12-12T12:58:37.278Z,7.30
2018-12-12T13:01:05.423Z,7.70
2018-12-12T13:03:33.539Z,7.50
2018-12-12T13:06:01.634Z,7.20
2018-12-12T13:08:29.683Z,7.70
2018-12-12T13:10:57.902Z,7.10
2018-12-12T13:13:26.238Z,7.10
2018-12-12T13:15:54.710Z,7.40
2018-12-12T13:18:23.042Z,7.00
2018-12-12T13:20:51.155Z,7.60
2018-12-12T13:23:19.298Z,7.50
2018-12-12T13:25:47.422Z,7.30
2018-12-12T13:28:15.643Z,7.10
2018-12-12T13:30:43.777Z,7.00
2018-12-12T13:33:11.918Z,7.20
2018-12-12T13:35:40.044Z,7.40
2018-12-12T13:38:08.119Z,7.60
2018-12-12T13:40:36.275Z,6.90
2018-12-12T13:43:04.758Z,7.00
2018-12-12T13:45:32.915Z,7.40
2018-12-12T13:48:01.100Z,6.90
2018-12-12T13:50:29.260Z,8.10
2018-12-12T13:52:57.449Z,7.00
2018-12-12T13:55:25.785Z,7.10
2018-12-12T13:57:54.055Z,7.30
2018-12-12T14:00:22.221Z,7.00
2018-12-12T14:02:50.314Z,7.80
2018-12-12T14:05:18.565Z,7.70
2018-12-12T14:07:46.880Z,7.50
2018-12-12T14:10:15.396Z,7.20
2018-12-12T14:12:43.642Z,7.50
2018-12-12T14:15:11.929Z,6.90
2018-12-12T14:17:40.301Z,7.60
2018-12-12T14:20:08.724Z,7.40
2018-12-12T14:22:36.954Z,6.50
2018-12-12T14:25:05.362Z,7.30
2018-12-12T14:27:38.870Z,6.80
2018-12-12T14:30:04.537Z,7.30
2018-12-12T14:32:32.793Z,7.50
2018-12-12T14:35:01.000Z,7.50
2018-12-12T14:37:29.416Z,6.70
2018-12-12T14:39:57.721Z,7.00
2018-12-12T14:42:25.975Z,7.00
2018-12-12T14:44:54.204Z,6.20
2018-12-12T14:47:22.399Z,6.20
2018-12-12T14:49:50.628Z,6.40
2018-12-12T14:52:18.723Z,6.60
2018-12-12T14:54:46.850Z,6.30
2018-12-12T14:57:14.975Z,6.40
2018-12-12T14:59:43.081Z,6.80
2018-12-12T15:02:11.188Z,6.60
2018-12-12T15:04:39.435Z,6.60
2018-12-12T15:07:07.751Z,6.40
2018-12-12T15:09:35.954Z,6.70
2018-12-12T15:12:04.398Z,6.60
2018-12-12T15:14:32.597Z,6.70
2018-12-12T15:17:00.784Z,6.30
2018-12-12T15:19:28.896Z,6.70
2018-12-12T15:21:57.127Z,6.70
2018-12-12T15:24:25.615Z,7.10
2018-12-12T15:26:53.911Z,6.70
2018-12-12T15:29:22.126Z,6.10
2018-12-12T15:31:50.290Z,6.10
2018-12-12T15:34:18.379Z,6.80
2018-12-12T15:36:46.680Z,6.70
2018-12-12T15:39:14.830Z,6.80
2018-12-12T15:41:43.074Z,7.10
2018-12-12T15:44:11.273Z,6.60
2018-12-12T15:46:39.387Z,6.90
2018-12-12T15:49:07.618Z,7.30
2018-12-12T15:51:35.863Z,6.60
2018-12-12T15:54:04.113Z,6.90
2018-12-12T15:56:32.277Z,6.90
2018-12-12T15:59:00.429Z,6.80
2018-12-12T16:01:28.520Z,6.60
2018-12-12T16:03:56.602Z,6.90
2018-12-12T16:06:24.737Z,6.90
2018-12-12T16:08:52.844Z,6.40
2018-12-12T16:11:21.080Z,6.80
2018-12-12T16:13:57.233Z,7.10
2018-12-12T16:16:25.423Z,6.90
2018-12-12T16:18:53.742Z,6.60
2018-12-12T16:21:22.122Z,6.40
2018-12-12T16:23:50.215Z,6.30
2018-12-12T16:26:18.287Z,6.40
2018-12-12T16:28:46.976Z,6.40
2018-12-12T16:31:15.104Z,7.30
2018-12-12T16:36:33.483Z,6.70
2018-12-12T16:39:01.588Z,7.00
2018-12-12T16:41:29.846Z,6.70
2018-12-12T16:43:58.118Z,7.00
2018-12-12T16:46:26.294Z,6.30
2018-12-12T16:48:54.610Z,6.80
2018-12-12T16:51:22.791Z,6.50
2018-12-12T16:53:50.953Z,6.60
2018-12-12T16:56:19.221Z,6.50
2018-12-12T16:58:47.575Z,6.70
2018-12-12T17:01:15.806Z,7.00
2018-12-12T17:03:44.004Z,6.60
2018-12-12T17:06:12.311Z,6.50
2018-12-12T17:08:40.431Z,6.80
2018-12-12T17:11:08.761Z,6.80
2018-12-12T17:13:40.135Z,6.90
2018-12-12T17:16:08.595Z,6.80
2018-12-12T17:18:36.724Z,6.50
2018-12-12T17:21:04.960Z,6.60
2018-12-12T17:23:33.161Z,6.40
2018-12-12T17:26:01.386Z,6.10
2018-12-12T17:28:29.648Z,6.20
2018-12-12T17:30:57.827Z,6.50
2018-12-12T17:33:26.046Z,6.60
2018-12-12T17:35:54.251Z,6.10
2018-12-12T17:38:22.574Z,6.10
2018-12-12T17:40:50.939Z,6.40
2018-12-12T17:43:19.161Z,6.70
2018-12-12T17:45:47.313Z,6.20
2018-12-12T17:48:15.700Z,7.00
2018-12-12T17:50:43.896Z,6.40
2018-12-12T17:53:12.265Z,7.00
2018-12-12T17:55:40.651Z,6.20
2018-12-12T17:58:08.864Z,6.80
2018-12-12T18:00:37.274Z,6.30
2018-12-12T18:03:05.480Z,6.20
2018-12-12T18:05:34.630Z,6.60
2018-12-12T18:08:02.808Z,6.80
2018-12-12T18:10:31.024Z,6.50
2018-12-12T18:12:59.492Z,6.50
2018-12-12T18:15:27.745Z,6.30
2018-12-12T18:17:55.946Z,6.00
2018-12-12T18:20:24.160Z,5.80
2018-12-12T18:22:52.439Z,5.90
2018-12-12T18:25:20.668Z,6.00
2018-12-12T18:27:48.848Z,6.00
2018-12-12T18:30:17.159Z,6.20
2018-12-12T18:32:45.609Z,6.00
2018-12-12T18:35:14.059Z,5.40
2018-12-12T18:37:42.766Z,5.70
2018-12-12T18:40:11.080Z,5.80
2018-12-12T18:42:39.388Z,5.70
2018-12-12T18:45:07.788Z,5.90
2018-12-12T18:47:35.989Z,5.80
2018-12-12T18:50:05.614Z,5.50
2018-12-12T18:52:33.963Z,5.80
2018-12-12T18:55:02.394Z,5.90
2018-12-12T18:57:30.807Z,5.90
2018-12-12T18:59:59.205Z,5.70
2018-12-12T19:02:27.431Z,6.10
2018-12-12T19:04:55.978Z,6.10
2018-12-12T19:07:24.197Z,6.00
2018-12-12T19:09:52.373Z,5.80
2018-12-12T19:12:20.822Z,5.90
2018-12-12T19:14:54.606Z,6.00
2018-12-12T19:17:22.858Z,5.70
2018-12-12T19:19:51.052Z,6.00
2018-12-12T19:22:19.282Z,6.60
2018-12-12T19:24:47.665Z,6.10
2018-12-12T19:27:15.990Z,6.40
2018-12-12T19:29:44.174Z,6.20
2018-12-12T19:32:12.403Z,6.00
2018-12-12T19:34:40.571Z,5.70
2018-12-12T19:37:08.801Z,6.00
2018-12-12T19:39:37.000Z,6.80
2018-12-12T19:42:05.383Z,6.60
2018-12-12T19:44:33.748Z,6.10
2018-12-12T19:47:01.934Z,6.10
2018-12-12T19:49:30.147Z,6.30
2018-12-12T19:51:58.462Z,6.10
2018-12-12T19:54:26.781Z,6.00
2018-12-12T19:56:55.199Z,5.60
2018-12-12T19:59:23.324Z,6.00
2018-12-12T20:01:51.743Z,5.90
2018-12-12T20:04:20.005Z,6.10
2018-12-12T20:06:48.372Z,6.40
2018-12-12T20:09:16.677Z,6.20
2018-12-12T20:11:45.078Z,6.40
2018-12-12T20:14:13.325Z,6.50
2018-12-12T20:16:41.571Z,6.60
2018-12-12T20:19:09.857Z,5.90
2018-12-12T20:21:38.133Z,5.40
2018-12-12T20:24:06.401Z,5.70
2018-12-12T20:26:34.750Z,5.80
2018-12-12T20:29:03.092Z,6.50
2018-12-12T20:31:31.678Z,6.50
2018-12-12T20:33:59.960Z,6.30
2018-12-12T20:36:28.361Z,5.60
2018-12-12T20:38:56.669Z,5.80
2018-12-12T20:41:25.097Z,6.10
2018-12-12T20:43:53.371Z,5.90
2018-12-12T20:46:21.973Z,5.40
2018-12-12T20:48:50.372Z,6.30
2018-12-12T20:51:18.749Z,6.10
2018-12-12T20:53:46.945Z,5.60
2018-12-12T20:56:15.348Z,5.20
2018-12-12T20:58:43.915Z,6.10
2018-12-12T21:01:12.936Z,6.30
2018-12-12T21:03:41.317Z,5.40
2018-12-12T21:06:09.632Z,5.20
2018-12-12T21:08:37.831Z,5.90
2018-12-12T21:11:06.044Z,5.60
2018-12-12T21:13:34.350Z,5.50
2018-12-12T21:16:02.986Z,6.10
2018-12-12T21:18:31.230Z,6.20
2018-12-12T21:20:59.610Z,6.20
2018-12-12T21:23:27.890Z,6.20
2018-12-12T21:25:56.290Z,5.80
2018-12-12T21:28:24.501Z,5.50
2018-12-12T21:30:52.807Z,5.50
2018-12-12T21:33:21.056Z,5.60
2018-12-12T21:35:49.551Z,6.00
2018-12-12T21:38:17.754Z,5.70
2018-12-12T21:40:47.705Z,6.40
2018-12-12T21:43:16.497Z,6.30
2018-12-12T21:45:44.734Z,5.90
2018-12-12T21:48:12.968Z,5.20
2018-12-12T21:50:41.359Z,6.10
2018-12-12T21:53:09.848Z,5.60
2018-12-12T21:55:39.090Z,5.10
2018-12-12T21:58:07.379Z,5.60
2018-12-12T22:00:35.540Z,5.70
2018-12-12T22:03:03.811Z,6.10
2018-12-12T22:05:31.980Z,5.80
2018-12-12T22:08:00.819Z,6.00
2018-12-12T22:10:28.988Z,6.10
2018-12-12T22:12:57.203Z,5.70
2018-12-12T22:15:25.522Z,5.30
2018-12-12T22:17:53.708Z,5.20
2018-12-12T22:20:23.722Z,6.00
2018-12-12T22:22:52.434Z,6.00
2018-12-12T22:25:21.537Z,6.40
2018-12-12T22:27:49.897Z,5.80
2018-12-12T22:30:18.241Z,5.90
2018-12-12T22:32:46.359Z,5.70
2018-12-12T22:35:14.491Z,6.00
2018-12-12T22:37:42.775Z,5.60
2018-12-12T22:40:11.090Z,5.30
2018-12-12T22:42:39.434Z,5.20
2018-12-12T22:45:08.139Z,5.60
2018-12-12T22:47:36.283Z,5.10
2018-12-12T22:50:04.990Z,5.60
2018-12-12T22:52:33.179Z,5.60
2018-12-12T22:55:01.247Z,5.40
2018-12-12T22:57:29.420Z,5.40
2018-12-12T22:59:57.688Z,5.60
2018-12-12T23:02:25.922Z,5.50
2018-12-12T23:04:54.650Z,5.80
2018-12-12T23:07:22.923Z,5.20
2018-12-12T23:09:51.232Z,4.80
2018-12-12T23:12:19.350Z,5.40
2018-12-12T23:14:47.482Z,5.20
2018-12-12T23:17:15.716Z,5.10
2018-12-12T23:19:43.937Z,5.00
2018-12-12T23:22:11.981Z,5.00
2018-12-12T23:24:40.174Z,5.10
2018-12-12T23:27:08.532Z,4.60
2018-12-12T23:29:36.634Z,5.30
2018-12-12T23:32:04.768Z,4.90
2018-12-12T23:34:32.967Z,4.80
2018-12-12T23:37:02.843Z,4.80
2018-12-12T23:39:30.943Z,4.80
2018-12-12T23:41:58.963Z,4.70
2018-12-12T23:44:27.154Z,4.70
2018-12-12T23:46:55.684Z,4.40
2018-12-12T23:49:25.546Z,4.90
2018-12-12T23:51:53.576Z,4.30
2018-12-12T23:54:21.903Z,4.50
2018-12-12T23:56:50.307Z,4.50
2018-12-12T23:59:19.670Z,4.40
